Time,TemperatureF,DewpointF,PressureIn,WindDirection,WindDirectionDegrees,WindSpeedMPH,WindSpeedGustMPH,Humidity,HourlyPrecipIn,Conditions,Clouds,dailyrainin,SoftwareType,DateUTC
2013-04-13 00:02:00,66.7,66.4,29.18,NE,45,0.0,2.0,99,0.00,,,0.01,meteohub,2013-04-13 10:02:00,
2013-04-13 00:07:00,66.6,66.2,29.18,NE,45,0.0,2.0,99,0.00,,,0.00,meteohub,2013-04-13 10:07:00,
2013-04-13 00:12:00,66.6,66.2,29.17,NE,45,0.0,0.0,99,0.00,,,0.00,meteohub,2013-04-13 10:12:00,
2013-04-13 00:17:00,66.4,66.0,29.18,NE,45,0.0,0.0,99,0.00,,,0.00,meteohub,2013-04-13 10:17:00,
2013-04-13 00:22:00,66.4,66.0,29.18,NE,45,0.0,0.0,99,0.00,,,0.00,meteohub,2013-04-13 10:22:00,
2013-04-13 00:27:00,66.2,65.8,29.18,NE,45,1.0,0.0,99,0.00,,,0.00,meteohub,2013-04-13 10:27:00,
2013-04-13 00:33:00,66.2,65.8,29.18,NE,45,0.0,2.0,99,0.00,,,0.00,meteohub,2013-04-13 10:33:00,
2013-04-13 00:38:00,66.2,65.8,29.19,NE,45,2.0,2.0,99,0.00,,,0.00,meteohub,2013-04-13 10:38:00,
2013-04-13 00:43:00,66.4,66.0,29.20,NE,45,2.0,2.0,99,0.00,,,0.00,meteohub,2013-04-13 10:43:00,
2013-04-13 00:48:00,66.4,66.0,29.19,NE,45,2.0,2.0,99,0.00,,,0.00,meteohub,2013-04-13 10:48:00,
2013-04-13 00:53:00,66.6,66.2,29.20,NE,45,2.0,3.0,99,0.00,,,0.00,meteohub,2013-04-13 10:53:00,
2013-04-13 00:59:00,66.7,66.4,29.20,NE,45,2.0,3.0,99,0.00,,,0.00,meteohub,2013-04-13 10:59:00,
2013-04-13 01:04:00,66.7,66.4,29.20,NE,45,2.0,3.0,99,0.00,,,0.00,meteohub,2013-04-13 11:04:00,
2013-04-13 01:09:00,66.9,66.6,29.20,NE,45,2.0,2.0,99,0.00,,,0.00,meteohub,2013-04-13 11:09:00,
2013-04-13 01:14:00,66.9,66.6,29.20,NE,45,2.0,2.0,99,0.00,,,0.00,meteohub,2013-04-13 11:14:00,
2013-04-13 01:19:00,66.9,66.6,29.20,NE,45,1.0,2.0,99,0.00,,,0.00,meteohub,2013-04-13 11:19:00,
2013-04-13 01:24:00,66.9,66.6,29.20,NE,45,2.0,2.0,99,0.00,,,0.00,meteohub,2013-04-13 11:24:00,
2013-04-13 01:29:00,66.9,66.6,29.19,NE,45,2.0,2.0,99,0.00,,,0.00,meteohub,2013-04-13 11:29:00,
2013-04-13 01:34:00,67.1,66.7,29.20,NE,45,0.0,2.0,99,0.00,,,0.00,meteohub,2013-04-13 11:34:00,
2013-04-13 01:39:00,67.1,66.7,29.20,NE,45,0.0,2.0,99,0.00,,,0.00,meteohub,2013-04-13 11:39:00,
2013-04-13 01:44:00,67.3,66.9,29.19,NE,45,2.0,2.0,99,0.00,,,0.00,meteohub,2013-04-13 11:44:00,
2013-04-13 01:49:00,67.3,66.9,29.19,NE,45,0.0,2.0,99,0.00,,,0.00,meteohub,2013-04-13 11:49:00,
2013-04-13 01:55:00,67.3,66.9,29.19,NE,45,2.0,2.0,99,0.00,,,0.00,meteohub,2013-04-13 11:55:00,
2013-04-13 02:00:00,67.3,66.9,29.19,NE,45,2.0,2.0,99,0.00,,,0.00,meteohub,2013-04-13 12:00:00,
2013-04-13 02:07:00,67.3,66.9,29.19,NE,45,2.0,2.0,99,0.00,,,0.00,meteohub,2013-04-13 12:07:00,
2013-04-13 02:12:00,67.1,66.7,29.19,NE,45,2.0,2.0,99,0.00,,,0.00,meteohub,2013-04-13 12:12:00,
2013-04-13 02:17:00,67.1,66.7,29.18,NE,45,2.0,2.0,99,0.00,,,0.00,meteohub,2013-04-13 12:17:00,
2013-04-13 02:22:00,67.3,66.9,29.18,NE,45,2.0,3.0,99,0.00,,,0.00,meteohub,2013-04-13 12:22:00,
2013-04-13 02:28:00,67.3,66.4,29.18,NE,45,2.0,3.0,97,0.00,,,0.00,meteohub,2013-04-13 12:28:00,
2013-04-13 02:33:00,67.3,66.0,29.18,West,270,2.0,3.0,96,0.00,,,0.00,meteohub,2013-04-13 12:33:00,
2013-04-13 02:38:00,67.5,66.2,29.18,NE,45,2.0,3.0,96,0.00,,,0.00,meteohub,2013-04-13 12:38:00,
2013-04-13 02:43:00,67.5,66.0,29.18,NE,45,2.0,3.0,95,0.00,,,0.00,meteohub,2013-04-13 12:43:00,
2013-04-13 02:48:00,67.6,65.8,29.18,NE,45,2.0,3.0,94,0.00,,,0.00,meteohub,2013-04-13 12:48:00,
2013-04-13 02:53:00,67.6,65.8,29.17,North,0,2.0,4.0,94,0.00,,,0.00,meteohub,2013-04-13 12:53:00,
2013-04-13 02:58:00,67.6,65.5,29.17,North,0,2.0,4.0,93,0.00,,,0.00,meteohub,2013-04-13 12:58:00,
2013-04-13 03:04:00,67.6,65.5,29.17,North,0,2.0,3.0,93,0.00,,,0.00,meteohub,2013-04-13 13:04:00,
2013-04-13 03:09:00,67.5,65.3,29.17,North,0,1.0,2.0,93,0.00,,,0.00,meteohub,2013-04-13 13:09:00,
2013-04-13 03:14:00,67.3,65.5,29.18,NW,315,2.0,2.0,94,0.00,,,0.00,meteohub,2013-04-13 13:14:00,
2013-04-13 03:20:00,67.1,65.3,29.17,NE,45,1.0,2.0,94,0.00,,,0.00,meteohub,2013-04-13 13:20:00,
2013-04-13 03:25:00,67.1,65.3,29.17,NE,45,2.0,2.0,94,0.00,,,0.00,meteohub,2013-04-13 13:25:00,
2013-04-13 03:30:00,66.9,65.5,29.18,NE,45,1.0,2.0,95,0.00,,,0.00,meteohub,2013-04-13 13:30:00,
2013-04-13 03:35:00,66.7,65.3,29.18,NE,45,2.0,2.0,95,0.00,,,0.00,meteohub,2013-04-13 13:35:00,
2013-04-13 03:41:00,66.7,65.5,29.17,NE,45,2.0,2.0,96,0.00,,,0.00,meteohub,2013-04-13 13:41:00,
2013-04-13 03:46:00,66.7,65.5,29.18,NE,45,2.0,2.0,96,0.00,,,0.00,meteohub,2013-04-13 13:46:00,
2013-04-13 03:51:00,66.7,65.5,29.18,NE,45,1.0,2.0,96,0.00,,,0.00,meteohub,2013-04-13 13:51:00,
2013-04-13 03:56:00,66.9,66.0,29.18,NE,45,2.0,2.0,97,0.00,,,0.00,meteohub,2013-04-13 13:56:00,
2013-04-13 04:01:00,66.9,66.0,29.18,North,0,2.0,2.0,97,0.00,,,0.00,meteohub,2013-04-13 14:01:00,
2013-04-13 04:06:00,66.9,66.4,29.18,North,0,1.0,2.0,98,0.00,,,0.00,meteohub,2013-04-13 14:06:00,
2013-04-13 04:11:00,67.1,66.6,29.18,North,0,2.0,2.0,98,0.00,,,0.00,meteohub,2013-04-13 14:11:00,
2013-04-13 04:16:00,67.1,66.6,29.18,NE,45,2.0,2.0,98,0.00,,,0.00,meteohub,2013-04-13 14:16:00,
2013-04-13 04:21:00,67.1,66.2,29.18,North,0,2.0,2.0,97,0.00,,,0.00,meteohub,2013-04-13 14:21:00,
2013-04-13 04:26:00,66.9,66.0,29.19,NE,45,2.0,2.0,97,0.00,,,0.00,meteohub,2013-04-13 14:26:00,
2013-04-13 04:31:00,66.9,65.7,29.19,NE,45,2.0,2.0,96,0.00,,,0.00,meteohub,2013-04-13 14:31:00,
2013-04-13 04:37:00,66.9,65.7,29.19,NE,45,2.0,2.0,96,0.00,,,0.00,meteohub,2013-04-13 14:37:00,
2013-04-13 04:42:00,67.1,65.8,29.19,NE,45,2.0,3.0,96,0.00,,,0.00,meteohub,2013-04-13 14:42:00,
2013-04-13 04:47:00,67.1,65.8,29.19,NE,45,2.0,3.0,96,0.00,,,0.00,meteohub,2013-04-13 14:47:00,
2013-04-13 04:52:00,67.1,65.8,29.19,NE,45,2.0,3.0,96,0.00,,,0.00,meteohub,2013-04-13 14:52:00,
2013-04-13 04:57:00,66.9,65.7,29.20,NW,315,2.0,3.0,96,0.00,,,0.00,meteohub,2013-04-13 14:57:00,
2013-04-13 05:02:00,66.9,65.7,29.20,NW,315,1.0,3.0,96,0.00,,,0.00,meteohub,2013-04-13 15:02:00,
2013-04-13 05:07:00,66.7,65.5,29.20,NE,45,2.0,3.0,96,0.00,,,0.00,meteohub,2013-04-13 15:07:00,
2013-04-13 05:12:00,66.7,65.5,29.21,NE,45,1.0,2.0,96,0.00,,,0.00,meteohub,2013-04-13 15:12:00,
2013-04-13 05:17:00,66.7,65.8,29.21,NE,45,2.0,2.0,97,0.00,,,0.00,meteohub,2013-04-13 15:17:00,
2013-04-13 05:22:00,66.9,66.0,29.21,NE,45,2.0,2.0,97,0.00,,,0.00,meteohub,2013-04-13 15:22:00,
2013-04-13 05:28:00,66.9,66.4,29.21,NE,45,2.0,2.0,98,0.00,,,0.00,meteohub,2013-04-13 15:28:00,
2013-04-13 05:33:00,66.9,66.4,29.21,NE,45,2.0,2.0,98,0.00,,,0.00,meteohub,2013-04-13 15:33:00,
2013-04-13 05:38:00,66.9,66.4,29.21,North,0,2.0,2.0,98,0.00,,,0.00,meteohub,2013-04-13 15:38:00,
2013-04-13 05:43:00,66.9,66.4,29.22,North,0,1.0,2.0,98,0.00,,,0.00,meteohub,2013-04-13 15:43:00,
2013-04-13 05:48:00,66.7,66.2,29.22,North,0,2.0,2.0,98,0.00,,,0.00,meteohub,2013-04-13 15:48:00,
2013-04-13 05:53:00,66.7,66.2,29.22,North,0,1.0,2.0,98,0.00,,,0.00,meteohub,2013-04-13 15:53:00,
2013-04-13 05:58:00,66.7,66.2,29.21,North,0,1.0,2.0,98,0.00,,,0.00,meteohub,2013-04-13 15:58:00,
2013-04-13 06:03:00,66.7,66.4,29.22,North,0,0.0,2.0,99,0.00,,,0.00,meteohub,2013-04-13 16:03:00,
2013-04-13 06:08:00,66.6,66.2,29.21,North,0,1.0,2.0,99,0.00,,,0.00,meteohub,2013-04-13 16:08:00,
2013-04-13 06:14:00,66.6,66.2,29.21,North,0,1.0,1.0,99,0.00,,,0.00,meteohub,2013-04-13 16:14:00,
2013-04-13 06:19:00,66.4,66.0,29.22,North,0,1.0,1.0,99,0.00,,,0.00,meteohub,2013-04-13 16:19:00,
2013-04-13 06:24:00,66.6,66.2,29.21,North,0,0.0,1.0,99,0.00,,,0.00,meteohub,2013-04-13 16:24:00,
2013-04-13 06:29:00,66.6,66.2,29.21,North,0,1.0,1.0,99,0.00,,,0.00,meteohub,2013-04-13 16:29:00,
2013-04-13 06:34:00,66.6,66.2,29.21,North,0,1.0,1.0,99,0.00,,,0.00,meteohub,2013-04-13 16:34:00,
2013-04-13 06:39:00,66.7,66.4,29.21,North,0,0.0,1.0,99,0.00,,,0.00,meteohub,2013-04-13 16:39:00,
2013-04-13 06:44:00,67.1,66.7,29.21,North,0,2.0,2.0,99,0.00,,,0.00,meteohub,2013-04-13 16:44:00,
2013-04-13 06:49:00,67.3,66.9,29.22,North,0,1.0,1.0,99,0.00,,,0.00,meteohub,2013-04-13 16:49:00,
2013-04-13 06:54:00,67.8,67.5,29.21,North,0,1.0,2.0,99,0.00,,,0.00,meteohub,2013-04-13 16:54:00,
2013-04-13 07:00:00,68.0,67.5,29.21,NE,45,2.0,2.0,98,0.00,,,0.00,meteohub,2013-04-13 17:00:00,
2013-04-13 07:05:00,68.4,67.5,29.21,NE,45,1.0,2.0,97,0.00,,,0.00,meteohub,2013-04-13 17:05:00,
2013-04-13 07:10:00,68.7,67.5,29.21,NE,45,2.0,2.0,96,0.00,,,0.00,meteohub,2013-04-13 17:10:00,
2013-04-13 07:16:00,68.9,67.1,29.20,NE,45,2.0,2.0,94,0.00,,,0.00,meteohub,2013-04-13 17:16:00,
2013-04-13 07:21:00,69.1,66.9,29.20,SE,135,2.0,2.0,93,0.00,,,0.00,meteohub,2013-04-13 17:21:00,
2013-04-13 07:26:00,69.8,66.7,29.20,SE,135,3.0,3.0,90,0.00,,,0.00,meteohub,2013-04-13 17:26:00,
2013-04-13 07:31:00,70.9,66.6,29.19,NE,45,3.0,4.0,86,0.00,,,0.00,meteohub,2013-04-13 17:31:00,
2013-04-13 07:36:00,72.0,66.6,29.19,East,90,2.0,4.0,83,0.00,,,0.00,meteohub,2013-04-13 17:36:00,
2013-04-13 07:42:00,73.4,67.6,29.18,SE,135,1.0,4.0,82,0.00,,,0.00,meteohub,2013-04-13 17:42:00,
2013-04-13 07:47:00,73.9,67.5,29.18,SE,135,0.0,4.0,80,0.00,,,0.00,meteohub,2013-04-13 17:47:00,
2013-04-13 07:52:00,73.8,66.0,29.19,West,270,3.0,4.0,77,0.00,,,0.00,meteohub,2013-04-13 17:52:00,
2013-04-13 07:57:00,73.6,66.7,29.19,South,180,2.0,4.0,79,0.00,,,0.00,meteohub,2013-04-13 17:57:00,
2013-04-13 08:02:00,73.4,66.9,29.19,NW,315,1.0,4.0,80,0.00,,,0.00,meteohub,2013-04-13 18:02:00,
2013-04-13 08:07:00,73.8,67.3,29.20,NW,315,2.0,3.0,80,0.00,,,0.00,meteohub,2013-04-13 18:07:00,
2013-04-13 08:12:00,74.1,66.7,29.20,SE,135,2.0,2.0,78,0.00,,,0.00,meteohub,2013-04-13 18:12:00,
2013-04-13 08:17:00,75.0,68.0,29.20,SE,135,2.0,2.0,79,0.00,,,0.00,meteohub,2013-04-13 18:17:00,
2013-04-13 08:22:00,76.3,68.2,29.20,SW,225,4.0,4.0,76,0.00,,,0.00,meteohub,2013-04-13 18:22:00,
2013-04-13 08:27:00,77.0,69.3,29.19,SW,225,2.0,4.0,77,0.00,,,0.00,meteohub,2013-04-13 18:27:00,
2013-04-13 08:32:00,77.9,68.9,29.20,SE,135,2.0,4.0,74,0.00,,,0.00,meteohub,2013-04-13 18:32:00,
2013-04-13 08:37:00,77.4,68.9,29.20,NW,315,2.0,4.0,75,0.00,,,0.00,meteohub,2013-04-13 18:37:00,
2013-04-13 08:42:00,75.4,67.6,29.19,East,90,4.0,5.0,77,0.00,,,0.00,meteohub,2013-04-13 18:42:00,
2013-04-13 08:47:00,74.1,67.6,29.19,East,90,8.0,8.0,80,0.00,,,0.00,meteohub,2013-04-13 18:47:00,
2013-04-13 08:52:00,73.2,68.2,29.18,SE,135,5.0,8.0,84,0.00,,,0.00,meteohub,2013-04-13 18:52:00,
2013-04-13 08:57:00,73.4,68.2,29.18,SE,135,6.0,8.0,84,0.00,,,0.00,meteohub,2013-04-13 18:57:00,
2013-04-13 09:02:00,74.1,68.5,29.18,SE,135,5.0,8.0,83,0.00,,,0.00,meteohub,2013-04-13 19:02:00,
2013-04-13 09:07:00,74.7,68.7,29.17,East,90,4.0,9.0,82,0.00,,,0.00,meteohub,2013-04-13 19:07:00,
2013-04-13 09:12:00,75.2,68.5,29.18,South,180,5.0,9.0,80,0.00,,,0.00,meteohub,2013-04-13 19:12:00,
2013-04-13 09:17:00,75.7,68.7,29.16,East,90,4.0,9.0,79,0.00,,,0.00,meteohub,2013-04-13 19:17:00,
2013-04-13 09:22:00,77.0,69.6,29.16,SE,135,7.0,9.0,78,0.00,,,0.00,meteohub,2013-04-13 19:22:00,
2013-04-13 09:28:00,77.0,69.3,29.16,SE,135,8.0,9.0,77,0.00,,,0.00,meteohub,2013-04-13 19:28:00,
2013-04-13 09:33:00,76.6,69.3,29.16,South,180,6.0,9.0,78,0.00,,,0.00,meteohub,2013-04-13 19:33:00,
2013-04-13 09:38:00,77.4,70.3,29.16,SE,135,8.0,8.0,79,0.00,,,0.00,meteohub,2013-04-13 19:38:00,
2013-04-13 09:43:00,76.3,69.3,29.15,East,90,9.0,9.0,79,0.00,,,0.00,meteohub,2013-04-13 19:43:00,
2013-04-13 09:48:00,75.6,68.9,29.15,SE,135,9.0,9.0,80,0.00,,,0.00,meteohub,2013-04-13 19:48:00,
2013-04-13 09:53:00,75.9,69.3,29.15,South,180,8.0,9.0,80,0.00,,,0.00,meteohub,2013-04-13 19:53:00,
2013-04-13 09:58:00,76.6,70.0,29.15,SE,135,6.0,9.0,80,0.00,,,0.00,meteohub,2013-04-13 19:58:00,
2013-04-13 10:03:00,77.4,70.3,29.14,SE,135,5.0,11.0,79,0.00,,,0.00,meteohub,2013-04-13 20:03:00,
2013-04-13 10:08:00,78.3,70.0,29.14,South,180,5.0,11.0,76,0.00,,,0.00,meteohub,2013-04-13 20:08:00,
2013-04-13 10:13:00,78.8,70.5,29.13,SE,135,5.0,11.0,76,0.00,,,0.00,meteohub,2013-04-13 20:13:00,
2013-04-13 10:18:00,78.4,69.8,29.13,South,180,7.0,7.0,75,0.00,,,0.00,meteohub,2013-04-13 20:18:00,
2013-04-13 10:23:00,78.6,70.9,29.13,East,90,5.0,8.0,77,0.00,,,0.00,meteohub,2013-04-13 20:23:00,
2013-04-13 10:28:00,78.6,70.3,29.12,South,180,7.0,8.0,76,0.00,,,0.00,meteohub,2013-04-13 20:28:00,
2013-04-13 10:33:00,78.8,71.1,29.12,SE,135,4.0,11.0,77,0.00,,,0.00,meteohub,2013-04-13 20:33:00,
2013-04-13 10:38:00,78.8,70.5,29.12,SE,135,3.0,11.0,76,0.00,,,0.00,meteohub,2013-04-13 20:38:00,
2013-04-13 10:43:00,78.6,70.9,29.12,East,90,3.0,11.0,77,0.00,,,0.00,meteohub,2013-04-13 20:43:00,
2013-04-13 10:48:00,79.3,70.7,29.11,SE,135,5.0,9.0,75,0.00,,,0.00,meteohub,2013-04-13 20:48:00,
2013-04-13 10:53:00,79.3,70.3,29.11,SE,135,7.0,9.0,74,0.00,,,0.00,meteohub,2013-04-13 20:53:00,
2013-04-13 10:58:00,78.8,69.1,29.10,SE,135,6.0,9.0,72,0.00,,,0.00,meteohub,2013-04-13 20:58:00,
2013-04-13 11:03:00,79.3,68.4,29.10,SE,135,7.0,8.0,69,0.00,,,0.00,meteohub,2013-04-13 21:03:00,
2013-04-13 11:08:00,80.2,67.5,29.09,South,180,6.0,10.0,65,0.00,,,0.00,meteohub,2013-04-13 21:08:00,
2013-04-13 11:13:00,81.7,65.5,29.09,East,90,4.0,10.0,58,0.00,,,0.00,meteohub,2013-04-13 21:13:00,
2013-04-13 11:18:00,82.8,66.0,29.09,SE,135,4.0,10.0,57,0.00,,,0.00,meteohub,2013-04-13 21:18:00,
2013-04-13 11:23:00,83.7,64.8,29.08,NW,315,4.0,8.0,53,0.00,,,0.00,meteohub,2013-04-13 21:23:00,
2013-04-13 11:28:00,84.2,65.7,29.09,West,270,3.0,7.0,54,0.00,,,0.00,meteohub,2013-04-13 21:28:00,
2013-04-13 11:33:00,84.4,65.8,29.09,NW,315,4.0,6.0,54,0.00,,,0.00,meteohub,2013-04-13 21:33:00,
2013-04-13 11:38:00,84.7,67.8,29.09,NW,315,6.0,6.0,57,0.00,,,0.00,meteohub,2013-04-13 21:38:00,
2013-04-13 11:43:00,84.4,66.9,29.09,West,270,4.0,6.0,56,0.00,,,0.00,meteohub,2013-04-13 21:43:00,
2013-04-13 11:48:00,83.8,66.4,29.09,West,270,5.0,7.0,56,0.00,,,0.00,meteohub,2013-04-13 21:48:00,
2013-04-13 11:53:00,83.1,66.4,29.09,NW,315,8.0,8.0,57,0.00,,,0.00,meteohub,2013-04-13 21:53:00,
2013-04-13 11:58:00,82.9,66.2,29.10,West,270,7.0,8.0,57,0.00,,,0.00,meteohub,2013-04-13 21:58:00,
2013-04-13 12:03:00,82.8,66.0,29.09,NE,45,3.0,8.0,57,0.00,,,0.00,meteohub,2013-04-13 22:03:00,
2013-04-13 12:08:00,83.3,66.6,29.09,NW,315,3.0,9.0,57,0.00,,,0.00,meteohub,2013-04-13 22:08:00,
2013-04-13 12:13:00,84.2,66.2,29.10,NW,315,8.0,9.0,55,0.00,,,0.00,meteohub,2013-04-13 22:13:00,
2013-04-13 12:18:00,84.2,66.2,29.10,North,0,3.0,8.0,55,0.00,,,0.00,meteohub,2013-04-13 22:18:00,
2013-04-13 12:23:00,85.3,67.8,29.10,NW,315,4.0,8.0,56,0.00,,,0.00,meteohub,2013-04-13 22:23:00,
2013-04-13 12:28:00,84.9,64.8,29.10,North,0,5.0,8.0,51,0.00,,,0.00,meteohub,2013-04-13 22:28:00,
2013-04-13 12:33:00,85.8,65.7,29.09,SE,135,2.0,7.0,51,0.00,,,0.00,meteohub,2013-04-13 22:33:00,
2013-04-13 12:38:00,85.8,64.4,29.09,North,0,4.0,7.0,49,0.00,,,0.00,meteohub,2013-04-13 22:38:00,
2013-04-13 12:43:00,85.6,64.9,29.10,West,270,4.0,6.0,50,0.00,,,0.00,meteohub,2013-04-13 22:43:00,
2013-04-13 12:48:00,85.5,64.0,29.09,NE,45,2.0,8.0,49,0.00,,,0.00,meteohub,2013-04-13 22:48:00,
2013-04-13 12:53:00,85.6,64.9,29.09,NE,45,4.0,8.0,50,0.00,,,0.00,meteohub,2013-04-13 22:53:00,
2013-04-13 12:58:00,85.6,66.0,29.09,West,270,6.0,11.0,52,0.00,,,0.00,meteohub,2013-04-13 22:58:00,
2013-04-13 13:03:00,85.3,67.3,29.10,North,0,4.0,11.0,55,0.00,,,0.00,meteohub,2013-04-13 23:03:00,
2013-04-13 13:08:00,85.3,66.2,29.10,NW,315,7.0,11.0,53,0.00,,,0.00,meteohub,2013-04-13 23:08:00,
2013-04-13 13:13:00,85.1,66.0,29.09,WNW,293,7.0,8.0,53,0.00,,,0.00,meteohub,2013-04-13 23:13:00,
2013-04-13 13:18:00,84.9,65.8,29.09,NW,315,4.0,10.0,53,0.00,,,0.00,meteohub,2013-04-13 23:18:00,
2013-04-13 13:23:00,85.5,66.4,29.09,NW,315,4.0,10.0,53,0.00,,,0.00,meteohub,2013-04-13 23:23:00,
2013-04-13 13:29:00,85.5,65.8,29.09,West,270,5.0,10.0,52,0.00,,,0.00,meteohub,2013-04-13 23:29:00,
2013-04-13 13:33:00,85.5,67.5,29.09,West,270,8.0,9.0,55,0.00,,,0.00,meteohub,2013-04-13 23:33:00,
2013-04-13 13:38:00,85.5,65.8,29.09,North,0,6.0,9.0,52,0.00,,,0.00,meteohub,2013-04-13 23:38:00,
2013-04-13 13:44:00,85.1,66.0,29.09,West,270,7.0,15.0,53,0.00,,,0.00,meteohub,2013-04-13 23:44:00,
2013-04-13 13:49:00,85.1,66.6,29.08,NE,45,6.0,15.0,54,0.00,,,0.00,meteohub,2013-04-13 23:49:00,
2013-04-13 13:54:00,85.3,65.1,29.09,NE,45,4.0,15.0,51,0.00,,,0.00,meteohub,2013-04-13 23:54:00,
2013-04-13 13:59:00,85.8,64.4,29.09,NW,315,6.0,9.0,49,0.00,,,0.00,meteohub,2013-04-13 23:59:00,
2013-04-13 14:04:00,86.0,65.1,29.09,SE,135,6.0,8.0,50,0.00,,,0.00,meteohub,2013-04-14 00:04:00,
2013-04-13 14:09:00,85.5,65.3,29.08,NW,315,6.0,8.0,51,0.00,,,0.00,meteohub,2013-04-14 00:09:00,
2013-04-13 14:14:00,84.4,63.7,29.08,SW,225,4.0,8.0,50,0.00,,,0.00,meteohub,2013-04-14 00:14:00,
2013-04-13 14:18:00,84.7,66.2,29.08,NW,315,8.0,10.0,54,0.00,,,0.00,meteohub,2013-04-14 00:18:00,
2013-04-13 14:22:00,84.4,68.0,29.08,North,0,8.0,10.0,58,0.00,,,0.00,meteohub,2013-04-14 00:22:00,
2013-04-13 14:27:00,83.5,67.6,29.08,NW,315,6.0,10.0,59,0.00,,,0.00,meteohub,2013-04-14 00:27:00,
2013-04-13 14:32:00,83.1,68.7,29.08,West,270,10.0,13.0,62,0.00,,,0.00,meteohub,2013-04-14 00:32:00,
2013-04-13 14:37:00,82.0,68.2,29.08,NW,315,8.0,13.0,63,0.00,,,0.00,meteohub,2013-04-14 00:37:00,
2013-04-13 14:42:00,82.4,69.1,29.08,NW,315,5.0,13.0,64,0.00,,,0.00,meteohub,2013-04-14 00:42:00,
2013-04-13 14:47:00,82.9,69.1,29.08,NW,315,8.0,11.0,63,0.00,,,0.00,meteohub,2013-04-14 00:47:00,
2013-04-13 14:52:00,83.1,68.7,29.08,West,270,5.0,11.0,62,0.00,,,0.00,meteohub,2013-04-14 00:52:00,
2013-04-13 14:57:00,82.9,69.1,29.08,NW,315,6.0,12.0,63,0.00,,,0.00,meteohub,2013-04-14 00:57:00,
2013-04-13 15:02:00,82.8,69.3,29.08,NE,45,5.0,14.0,64,0.00,,,0.00,meteohub,2013-04-14 01:02:00,
2013-04-13 15:07:00,82.4,69.1,29.07,North,0,4.0,14.0,64,0.00,,,0.00,meteohub,2013-04-14 01:07:00,
2013-04-13 15:12:00,83.1,69.3,29.07,West,270,8.0,14.0,63,0.00,,,0.00,meteohub,2013-04-14 01:12:00,
2013-04-13 15:17:00,82.4,69.1,29.07,West,270,4.0,11.0,64,0.00,,,0.00,meteohub,2013-04-14 01:17:00,
2013-04-13 15:22:00,82.2,68.9,29.07,North,0,8.0,11.0,64,0.00,,,0.00,meteohub,2013-04-14 01:22:00,
2013-04-13 15:27:00,81.9,68.9,29.07,West,270,8.0,11.0,65,0.00,,,0.00,meteohub,2013-04-14 01:27:00,
2013-04-13 15:32:00,82.2,68.9,29.07,NW,315,5.0,9.0,64,0.00,,,0.00,meteohub,2013-04-14 01:32:00,
2013-04-13 15:37:00,82.2,68.9,29.07,NW,315,5.0,11.0,64,0.00,,,0.00,meteohub,2013-04-14 01:37:00,
2013-04-13 15:42:00,82.4,69.1,29.07,NW,315,3.0,11.0,64,0.00,,,0.00,meteohub,2013-04-14 01:42:00,
2013-04-13 15:47:00,82.8,68.4,29.07,North,0,5.0,11.0,62,0.00,,,0.00,meteohub,2013-04-14 01:47:00,
2013-04-13 15:52:00,82.4,68.5,29.07,West,270,9.0,9.0,63,0.00,,,0.00,meteohub,2013-04-14 01:52:00,
2013-04-13 15:57:00,82.4,69.1,29.07,West,270,8.0,11.0,64,0.00,,,0.00,meteohub,2013-04-14 01:57:00,
2013-04-13 16:02:00,82.0,68.7,29.08,NW,315,6.0,11.0,64,0.00,,,0.00,meteohub,2013-04-14 02:02:00,
2013-04-13 16:08:00,81.5,68.5,29.08,North,0,8.0,11.0,65,0.00,,,0.00,meteohub,2013-04-14 02:08:00,
2013-04-13 16:13:00,81.0,68.5,29.08,West,270,6.0,9.0,66,0.00,,,0.00,meteohub,2013-04-14 02:13:00,
2013-04-13 16:18:00,80.6,68.5,29.08,SW,225,7.0,9.0,67,0.00,,,0.00,meteohub,2013-04-14 02:18:00,
2013-04-13 16:23:00,81.0,68.0,29.09,West,270,6.0,9.0,65,0.00,,,0.00,meteohub,2013-04-14 02:23:00,
2013-04-13 16:28:00,81.1,68.7,29.08,NW,315,5.0,7.0,66,0.00,,,0.00,meteohub,2013-04-14 02:28:00,
2013-04-13 16:33:00,80.1,68.2,29.09,North,0,9.0,9.0,67,0.00,,,0.00,meteohub,2013-04-14 02:33:00,
2013-04-13 16:38:00,79.3,68.4,29.09,North,0,8.0,9.0,69,0.00,,,0.00,meteohub,2013-04-14 02:38:00,
2013-04-13 16:43:00,78.6,68.0,29.09,NW,315,6.0,9.0,70,0.00,,,0.00,meteohub,2013-04-14 02:43:00,
2013-04-13 16:48:00,78.6,68.0,29.10,North,0,2.0,9.0,70,0.00,,,0.00,meteohub,2013-04-14 02:48:00,
2013-04-13 16:53:00,78.1,67.8,29.10,North,0,4.0,8.0,71,0.00,,,0.00,meteohub,2013-04-14 02:53:00,
2013-04-13 16:58:00,77.0,67.6,29.10,NW,315,4.0,8.0,73,0.00,,,0.00,meteohub,2013-04-14 02:58:00,
2013-04-13 17:03:00,75.9,67.8,29.11,North,0,4.0,8.0,76,0.00,,,0.00,meteohub,2013-04-14 03:03:00,
2013-04-13 17:08:00,75.4,67.6,29.10,West,270,3.0,8.0,77,0.00,,,0.00,meteohub,2013-04-14 03:08:00,
2013-04-13 17:13:00,76.3,68.5,29.11,NE,45,3.0,5.0,77,0.00,,,0.00,meteohub,2013-04-14 03:13:00,
2013-04-13 17:18:00,75.7,67.6,29.11,North,0,4.0,7.0,76,0.00,,,0.00,meteohub,2013-04-14 03:18:00,
2013-04-13 17:23:00,75.6,68.2,29.12,NW,315,4.0,7.0,78,0.00,,,0.00,meteohub,2013-04-14 03:23:00,
2013-04-13 17:28:00,75.0,68.0,29.12,North,0,4.0,7.0,79,0.00,,,0.00,meteohub,2013-04-14 03:28:00,
2013-04-13 17:33:00,74.1,68.2,29.13,NW,315,5.0,7.0,82,0.00,,,0.00,meteohub,2013-04-14 03:33:00,
2013-04-13 17:38:00,73.6,68.4,29.12,West,270,4.0,7.0,84,0.00,,,0.00,meteohub,2013-04-14 03:38:00,
2013-04-13 17:43:00,73.4,68.5,29.13,NW,315,4.0,7.0,85,0.00,,,0.00,meteohub,2013-04-14 03:43:00,
2013-04-13 17:48:00,73.0,68.2,29.13,East,90,4.0,7.0,85,0.00,,,0.00,meteohub,2013-04-14 03:48:00,
2013-04-13 17:53:00,72.9,68.0,29.13,North,0,4.0,7.0,85,0.00,,,0.00,meteohub,2013-04-14 03:53:00,
2013-04-13 17:58:00,72.3,67.8,29.13,North,0,4.0,6.0,86,0.00,,,0.00,meteohub,2013-04-14 03:58:00,
2013-04-13 18:00:00,72.3,68.2,29.13,North,0,4.0,6.0,87,0.00,,,0.00,meteohub,2013-04-14 04:00:00,
2013-04-13 18:05:00,71.8,67.6,29.13,NW,315,3.0,7.0,87,0.00,,,0.00,meteohub,2013-04-14 04:05:00,
2013-04-13 18:11:00,71.6,68.2,29.13,East,90,5.0,7.0,89,0.00,,,0.00,meteohub,2013-04-14 04:11:00,
2013-04-13 18:16:00,71.2,67.8,29.13,North,0,2.0,7.0,89,0.00,,,0.00,meteohub,2013-04-14 04:16:00,
2013-04-13 18:21:00,71.1,68.0,29.13,North,0,2.0,5.0,90,0.00,,,0.00,meteohub,2013-04-14 04:21:00,
2013-04-13 18:26:00,70.9,67.8,29.13,North,0,3.0,5.0,90,0.00,,,0.00,meteohub,2013-04-14 04:26:00,
2013-04-13 18:31:00,70.7,67.6,29.13,North,0,3.0,4.0,90,0.00,,,0.00,meteohub,2013-04-14 04:31:00,
2013-04-13 18:36:00,70.3,67.8,29.13,WNW,293,4.0,4.0,92,0.00,,,0.00,meteohub,2013-04-14 04:36:00,
2013-04-13 18:41:00,70.2,68.0,29.14,NW,315,4.0,4.0,93,0.00,,,0.00,meteohub,2013-04-14 04:41:00,
2013-04-13 18:46:00,70.0,68.2,29.13,NW,315,3.0,4.0,94,0.00,,,0.00,meteohub,2013-04-14 04:46:00,
2013-04-13 18:51:00,69.8,68.5,29.14,NE,45,4.0,7.0,96,0.00,,,0.00,meteohub,2013-04-14 04:51:00,
2013-04-13 18:56:00,69.6,68.7,29.14,North,0,5.0,7.0,97,0.00,,,0.00,meteohub,2013-04-14 04:56:00,
2013-04-13 19:01:00,69.6,69.1,29.14,SSE,158,2.0,7.0,98,0.00,,,0.00,meteohub,2013-04-14 05:01:00,
2013-04-13 19:06:00,69.4,69.1,29.15,North,0,4.0,5.0,99,0.00,,,0.00,meteohub,2013-04-14 05:06:00,
2013-04-13 19:11:00,69.3,68.9,29.15,North,0,4.0,5.0,99,0.00,,,0.00,meteohub,2013-04-14 05:11:00,
2013-04-13 19:16:00,69.3,68.9,29.15,North,0,2.0,4.0,99,0.00,,,0.00,meteohub,2013-04-14 05:16:00,
2013-04-13 19:21:00,69.1,68.7,29.15,North,0,2.0,4.0,99,0.00,,,0.00,meteohub,2013-04-14 05:21:00,
2013-04-13 19:26:00,69.1,68.7,29.16,North,0,2.0,4.0,99,0.00,,,0.00,meteohub,2013-04-14 05:26:00,
2013-04-13 19:31:00,69.1,68.7,29.16,NE,45,2.0,7.0,99,0.00,,,0.00,meteohub,2013-04-14 05:31:00,
2013-04-13 19:36:00,68.9,68.5,29.16,NW,315,3.0,7.0,99,0.00,,,0.00,meteohub,2013-04-14 05:36:00,
2013-04-13 19:41:00,68.9,68.5,29.17,North,0,2.0,7.0,99,0.00,,,0.00,meteohub,2013-04-14 05:41:00,
2013-04-13 19:46:00,68.9,68.5,29.17,NE,45,3.0,3.0,99,0.00,,,0.00,meteohub,2013-04-14 05:46:00,
2013-04-13 19:51:00,68.7,68.4,29.17,NE,45,3.0,3.0,99,0.00,,,0.00,meteohub,2013-04-14 05:51:00,
2013-04-13 19:57:00,68.7,68.4,29.17,NE,45,2.0,3.0,99,0.00,,,0.00,meteohub,2013-04-14 05:57:00,
2013-04-13 20:02:00,68.7,68.4,29.17,NE,45,4.0,4.0,99,0.00,,,0.00,meteohub,2013-04-14 06:02:00,
2013-04-13 20:07:00,68.7,68.4,29.17,NE,45,4.0,4.0,99,0.00,,,0.00,meteohub,2013-04-14 06:07:00,
2013-04-13 20:12:00,68.7,68.4,29.17,North,0,2.0,4.0,99,0.00,,,0.00,meteohub,2013-04-14 06:12:00,
2013-04-13 20:17:00,68.7,68.4,29.18,NE,45,2.0,4.0,99,0.00,,,0.00,meteohub,2013-04-14 06:17:00,
2013-04-13 20:22:00,68.7,67.5,29.17,NE,45,3.0,4.0,96,0.00,,,0.00,meteohub,2013-04-14 06:22:00,
2013-04-13 20:27:00,68.7,67.3,29.17,North,0,2.0,3.0,95,0.00,,,0.00,meteohub,2013-04-14 06:27:00,
2013-04-13 20:32:00,68.9,66.7,29.17,NE,45,2.0,3.0,93,0.00,,,0.00,meteohub,2013-04-14 06:32:00,
2013-04-13 20:37:00,68.7,66.6,29.18,West,270,3.0,3.0,93,0.00,,,0.00,meteohub,2013-04-14 06:37:00,
2013-04-13 20:42:00,68.7,66.6,29.18,West,270,2.0,4.0,93,0.00,,,0.00,meteohub,2013-04-14 06:42:00,
2013-04-13 20:47:00,68.5,67.1,29.18,North,0,2.0,4.0,95,0.00,,,0.00,meteohub,2013-04-14 06:47:00,
2013-04-13 20:52:00,68.4,67.1,29.18,North,0,2.0,4.0,96,0.00,,,0.00,meteohub,2013-04-14 06:52:00,
2013-04-13 20:57:00,68.2,67.6,29.19,North,0,2.0,2.0,98,0.00,,,0.00,meteohub,2013-04-14 06:57:00,
2013-04-13 21:03:00,68.2,67.8,29.19,NE,45,3.0,3.0,99,0.00,,,0.00,meteohub,2013-04-14 07:03:00,
2013-04-13 21:08:00,68.0,67.6,29.19,NE,45,3.0,3.0,99,0.00,,,0.00,meteohub,2013-04-14 07:08:00,
2013-04-13 21:13:00,68.0,67.6,29.19,NE,45,2.0,3.0,99,0.00,,,0.00,meteohub,2013-04-14 07:13:00,
2013-04-13 21:18:00,68.0,67.6,29.19,North,0,2.0,3.0,99,0.00,,,0.00,meteohub,2013-04-14 07:18:00,
2013-04-13 21:23:00,68.0,67.6,29.19,NE,45,3.0,3.0,99,0.00,,,0.00,meteohub,2013-04-14 07:23:00,
2013-04-13 21:28:00,68.0,67.6,29.19,NE,45,2.0,4.0,99,0.00,,,0.00,meteohub,2013-04-14 07:28:00,
2013-04-13 21:33:00,68.0,67.6,29.19,NE,45,2.0,4.0,99,0.00,,,0.00,meteohub,2013-04-14 07:33:00,
2013-04-13 21:38:00,68.0,67.6,29.19,NE,45,2.0,4.0,99,0.00,,,0.00,meteohub,2013-04-14 07:38:00,
2013-04-13 21:43:00,68.0,67.6,29.20,NE,45,2.0,3.0,99,0.00,,,0.00,meteohub,2013-04-14 07:43:00,
2013-04-13 21:48:00,67.8,67.5,29.21,North,0,1.0,3.0,99,0.00,,,0.00,meteohub,2013-04-14 07:48:00,
2013-04-13 21:53:00,67.5,67.1,29.21,North,0,1.0,2.0,99,0.00,,,0.00,meteohub,2013-04-14 07:53:00,
2013-04-13 21:58:00,67.3,66.9,29.20,NE,45,1.0,2.0,99,0.00,,,0.00,meteohub,2013-04-14 07:58:00,
2013-04-13 22:03:00,67.1,66.7,29.20,NE,45,2.0,2.0,99,0.00,,,0.00,meteohub,2013-04-14 08:03:00,
2013-04-13 22:08:00,67.1,66.6,29.21,SE,135,2.0,2.0,98,0.00,,,0.00,meteohub,2013-04-14 08:08:00,
2013-04-13 22:13:00,67.1,66.6,29.20,SW,225,2.0,2.0,98,0.00,,,0.00,meteohub,2013-04-14 08:13:00,
2013-04-13 22:18:00,67.3,66.9,29.21,East,90,1.0,3.0,99,0.00,,,0.00,meteohub,2013-04-14 08:18:00,
2013-04-13 22:23:00,67.6,67.3,29.21,SE,135,2.0,3.0,99,0.00,,,0.00,meteohub,2013-04-14 08:23:00,
2013-04-13 22:28:00,68.0,67.6,29.22,East,90,1.0,3.0,99,0.00,,,0.00,meteohub,2013-04-14 08:28:00,
2013-04-13 22:33:00,68.4,68.0,29.21,NE,45,2.0,3.0,99,0.00,,,0.00,meteohub,2013-04-14 08:33:00,
2013-04-13 22:38:00,68.5,68.2,29.22,NE,45,0.0,2.0,99,0.00,,,0.00,meteohub,2013-04-14 08:38:00,
2013-04-13 22:43:00,68.5,68.2,29.22,East,90,1.0,2.0,99,0.00,,,0.00,meteohub,2013-04-14 08:43:00,
2013-04-13 22:48:00,68.5,68.2,29.21,East,90,1.0,2.0,99,0.00,,,0.00,meteohub,2013-04-14 08:48:00,
2013-04-13 22:53:00,68.7,68.4,29.22,East,90,1.0,2.0,99,0.00,,,0.00,meteohub,2013-04-14 08:53:00,
2013-04-13 22:58:00,68.5,68.2,29.22,NE,45,1.0,2.0,99,0.00,,,0.00,meteohub,2013-04-14 08:58:00,
2013-04-13 23:03:00,68.7,68.2,29.22,NE,45,2.0,2.0,98,0.00,,,0.00,meteohub,2013-04-14 09:03:00,
2013-04-13 23:08:00,68.7,67.8,29.22,NE,45,1.0,2.0,97,0.00,,,0.00,meteohub,2013-04-14 09:08:00,
2013-04-13 23:13:00,68.7,67.5,29.21,NE,45,2.0,2.0,96,0.00,,,0.00,meteohub,2013-04-14 09:13:00,
2013-04-13 23:18:00,68.7,67.3,29.21,NE,45,1.0,2.0,95,0.00,,,0.00,meteohub,2013-04-14 09:18:00,
2013-04-13 23:23:00,68.5,66.7,29.21,NE,45,2.0,2.0,94,0.00,,,0.00,meteohub,2013-04-14 09:23:00,
2013-04-13 23:28:00,68.5,66.4,29.20,East,90,2.0,3.0,93,0.00,,,0.00,meteohub,2013-04-14 09:28:00,
2013-04-13 23:33:00,68.4,66.6,29.19,East,90,2.0,4.0,94,0.00,,,0.00,meteohub,2013-04-14 09:33:00,
2013-04-13 23:38:00,68.4,66.6,29.19,South,180,3.0,4.0,94,0.00,,,0.00,meteohub,2013-04-14 09:38:00,
2013-04-13 23:43:00,68.4,66.6,29.20,SE,135,1.0,5.0,94,0.00,,,0.00,meteohub,2013-04-14 09:43:00,
2013-04-13 23:48:00,68.2,66.7,29.20,East,90,2.0,5.0,95,0.00,,,0.00,meteohub,2013-04-14 09:48:00,
2013-04-13 23:53:00,67.8,66.6,29.19,East,90,2.0,5.0,96,0.00,,,0.00,meteohub,2013-04-14 09:53:00,
2013-04-13 23:58:00,67.5,66.2,29.19,East,90,1.0,2.0,96,0.00,,,0.00,meteohub,2013-04-14 09:58:00,